Time;durP1;ratioP1;P1;durP2;ratioP2;P2;SDS_P1;SDS_P2;PMS_P1;PMS_P2;Temp;Humidity;BMP_temperature;BMP_pressure;BME280_temperature;BME280_humidity;BME280_pressure;Samples;Min_cycle;Max_cycle;Signal;HPM_P1;HPM_P2
2021/10/18 00:01:58;;;;;;;10.40;6.88;;;9.70;99.90;;;;;;4990100;28;20034;-86
2021/10/18 00:04:23;;;;;;;11.43;6.72;;;9.60;99.90;;;;;;4990057;28;20046;-86
2021/10/18 00:06:49;;;;;;;11.13;6.57;;;9.60;99.90;;;;;;4988751;28;20031;-86
2021/10/18 00:09:14;;;;;;;7.43;6.03;;;9.60;99.90;;;;;;4990133;28;20034;-86
2021/10/18 00:11:40;;;;;;;8.80;6.78;;;9.60;99.90;;;;;;5006290;28;20054;-86
2021/10/18 00:14:07;;;;;;;10.68;6.65;;;9.60;99.90;;;;;;4989865;28;20035;-86
2021/10/18 00:16:35;;;;;;;11.15;6.43;;;9.50;99.90;;;;;;4989755;28;20038;-85
2021/10/18 00:19:00;;;;;;;9.25;5.85;;;9.50;99.90;;;;;;4989838;28;20097;-84
2021/10/18 00:21:26;;;;;;;11.07;6.90;;;9.50;99.90;;;;;;4990032;28;20037;-86
2021/10/18 00:23:52;;;;;;;9.27;7.28;;;9.50;99.90;;;;;;5002243;28;20508;-87
2021/10/18 00:26:17;;;;;;;11.77;6.93;;;9.50;99.90;;;;;;5030151;28;20056;-86
2021/10/18 00:28:43;;;;;;;10.05;6.90;;;9.40;99.90;;;;;;5046470;28;20089;-86
2021/10/18 00:31:08;;;;;;;10.20;7.03;;;9.40;99.90;;;;;;5029823;28;20037;-86
2021/10/18 00:33:34;;;;;;;11.05;7.28;;;9.40;99.90;;;;;;5030020;28;20030;-85
2021/10/18 00:36:00;;;;;;;9.65;6.50;;;9.50;99.90;;;;;;5029662;28;20026;-86
2021/10/18 00:38:25;;;;;;;11.52;7.25;;;9.40;99.90;;;;;;5029828;28;20091;-84
2021/10/18 00:40:51;;;;;;;11.38;7.05;;;9.30;99.90;;;;;;5029833;28;20049;-86
2021/10/18 00:43:17;;;;;;;9.45;6.68;;;9.20;99.90;;;;;;5030035;28;20033;-86
2021/10/18 00:45:43;;;;;;;9.55;8.02;;;9.20;99.90;;;;;;5029722;28;20405;-86
2021/10/18 00:48:08;;;;;;;9.18;8.02;;;9.10;99.90;;;;;;5045990;28;20168;-86
2021/10/18 00:50:34;;;;;;;13.10;8.48;;;9.10;99.90;;;;;;5029650;28;20025;-86
2021/10/18 00:53:00;;;;;;;10.52;7.38;;;9.10;99.90;;;;;;5029438;28;20033;-86
2021/10/18 00:55:27;;;;;;;11.05;7.65;;;9.10;99.90;;;;;;5045941;28;20112;-86
2021/10/18 00:57:54;;;;;;;12.45;7.25;;;9.10;99.90;;;;;;5029172;28;20060;-86
2021/10/18 01:00:19;;;;;;;11.85;7.53;;;9.10;99.90;;;;;;5029148;28;20025;-87
2021/10/18 01:02:45;;;;;;;11.32;7.68;;;9.10;99.90;;;;;;5045802;28;20048;-86
2021/10/18 01:05:11;;;;;;;10.73;7.60;;;9.20;99.90;;;;;;5029194;28;20025;-86
2021/10/18 01:07:37;;;;;;;13.38;8.40;;;9.20;99.90;;;;;;5029164;28;20097;-86
2021/10/18 01:10:03;;;;;;;11.35;8.15;;;9.20;99.90;;;;;;5029280;28;20025;-86
2021/10/18 01:12:29;;;;;;;10.02;7.20;;;9.30;99.90;;;;;;5029136;28;20076;-86
2021/10/18 01:14:54;;;;;;;10.48;7.32;;;9.30;99.90;;;;;;5045414;28;20045;-86
2021/10/18 01:17:20;;;;;;;11.75;8.05;;;9.30;99.90;;;;;;5028562;28;20041;-87
2021/10/18 01:19:47;;;;;;;13.57;7.60;;;9.30;99.90;;;;;;5028966;28;20057;-86
2021/10/18 01:22:13;;;;;;;12.32;8.23;;;9.40;99.90;;;;;;5045366;28;20083;-86
2021/10/18 01:24:38;;;;;;;14.07;8.02;;;9.40;99.90;;;;;;5029077;28;20494;-87
2021/10/18 01:27:04;;;;;;;11.52;8.13;;;9.30;99.90;;;;;;5028692;28;20052;-86
2021/10/18 01:29:36;;;;;;;12.00;8.65;;;9.30;99.90;;;;;;5028992;28;20040;-87
2021/10/18 01:32:03;;;;;;;10.70;7.72;;;9.30;99.90;;;;;;5029093;28;20044;-85
2021/10/18 01:34:29;;;;;;;13.43;8.10;;;9.30;99.90;;;;;;5029120;28;20083;-86
2021/10/18 01:37:00;;;;;;;13.48;9.02;;;9.20;99.90;;;;;;5030600;28;20061;-86
2021/10/18 01:39:26;;;;;;;12.30;8.75;;;9.20;99.90;;;;;;5045673;28;20373;-87
2021/10/18 01:41:52;;;;;;;15.00;9.18;;;9.10;99.90;;;;;;5028724;28;20033;-86
2021/10/18 01:44:18;;;;;;;9.88;8.00;;;9.10;99.90;;;;;;5028962;28;20029;-87
2021/10/18 01:46:44;;;;;;;12.00;8.57;;;9.10;99.90;;;;;;5045094;28;20037;-86
2021/10/18 01:49:09;;;;;;;11.73;8.80;;;9.00;99.90;;;;;;5045021;28;20079;-85
2021/10/18 01:51:35;;;;;;;13.27;8.88;;;9.00;99.90;;;;;;5028335;28;20056;-86
2021/10/18 01:54:01;;;;;;;12.27;9.07;;;9.00;99.90;;;;;;5028756;28;20033;-85
2021/10/18 01:56:27;;;;;;;13.45;7.82;;;9.00;99.90;;;;;;5024912;28;20075;-86
2021/10/18 01:58:52;;;;;;;12.10;7.68;;;9.00;99.90;;;;;;5041848;28;20057;-86
2021/10/18 02:01:18;;;;;;;11.77;7.85;;;9.00;99.90;;;;;;5025310;28;20060;-86
2021/10/18 02:03:44;;;;;;;12.57;7.57;;;9.10;99.90;;;;;;5041814;28;20402;-86
2021/10/18 02:06:10;;;;;;;10.93;7.80;;;9.10;99.90;;;;;;5025413;28;20026;-86
2021/10/18 02:08:39;;;;;;;11.77;7.90;;;9.10;99.90;;;;;;5025388;28;20049;-86
2021/10/18 02:11:06;;;;;;;10.02;7.75;;;9.10;99.90;;;;;;5025214;28;20034;-86
2021/10/18 02:13:31;;;;;;;11.00;7.80;;;9.10;99.90;;;;;;5041673;28;20029;-86
2021/10/18 02:15:57;;;;;;;10.95;7.60;;;9.10;99.90;;;;;;5041213;28;20041;-86
2021/10/18 02:18:23;;;;;;;12.95;7.65;;;9.10;99.90;;;;;;5041865;28;20045;-87
2021/10/18 02:20:49;;;;;;;11.63;7.95;;;9.10;99.90;;;;;;5024988;28;20030;-86
2021/10/18 02:23:16;;;;;;;10.20;6.68;;;9.10;99.90;;;;;;5025065;28;20026;-86
2021/10/18 02:25:42;;;;;;;12.07;8.43;;;9.10;99.90;;;;;;5025299;28;20030;-86
2021/10/18 02:28:07;;;;;;;13.45;7.90;;;9.10;99.90;;;;;;5025087;28;20053;-86
2021/10/18 02:30:33;;;;;;;9.30;7.00;;;9.10;99.90;;;;;;5027962;28;20429;-86
2021/10/18 02:32:59;;;;;;;9.68;6.72;;;9.10;99.90;;;;;;5029074;28;20394;-86
2021/10/18 02:35:24;;;;;;;13.93;7.78;;;9.10;99.90;;;;;;5029009;28;20029;-86
2021/10/18 02:37:51;;;;;;;10.80;7.63;;;9.10;99.90;;;;;;5028779;28;20041;-86
2021/10/18 02:40:17;;;;;;;10.57;7.43;;;9.10;99.90;;;;;;5028726;28;20292;-85
2021/10/18 02:42:42;;;;;;;12.43;8.13;;;9.10;99.90;;;;;;5028690;28;20038;-86
2021/10/18 02:45:09;;;;;;;11.88;7.55;;;9.20;99.90;;;;;;5028670;28;20382;-86
2021/10/18 02:47:35;;;;;;;12.35;8.32;;;9.20;99.90;;;;;;5028566;28;20037;-86
2021/10/18 02:50:02;;;;;;;12.82;8.55;;;9.20;99.90;;;;;;5028648;28;20030;-86
2021/10/18 02:52:28;;;;;;;11.75;7.82;;;9.20;99.90;;;;;;5028813;28;20037;-87
2021/10/18 02:54:54;;;;;;;10.95;7.72;;;9.20;99.90;;;;;;5032147;28;20025;-86
2021/10/18 02:57:20;;;;;;;12.27;7.38;;;9.20;99.90;;;;;;5047846;28;20053;-87
2021/10/18 02:59:46;;;;;;;13.90;8.30;;;9.20;99.90;;;;;;5047895;28;20025;-86
2021/10/18 03:02:12;;;;;;;11.10;8.23;;;9.20;99.90;;;;;;5031732;28;20065;-86
2021/10/18 03:04:38;;;;;;;12.90;8.40;;;9.20;99.90;;;;;;5047988;28;20022;-86
2021/10/18 03:07:04;;;;;;;9.70;7.38;;;9.20;99.90;;;;;;5047942;28;20036;-85
2021/10/18 03:09:29;;;;;;;11.38;8.40;;;9.20;99.90;;;;;;5048164;28;20025;-85
2021/10/18 03:11:55;;;;;;;12.68;8.30;;;9.20;99.90;;;;;;5047824;28;20056;-85
2021/10/18 03:14:21;;;;;;;11.25;7.43;;;9.20;99.90;;;;;;5048127;28;20087;-86
2021/10/18 03:16:47;;;;;;;9.23;6.80;;;9.10;99.90;;;;;;5047694;28;20045;-86
2021/10/18 03:19:13;;;;;;;10.75;7.13;;;9.10;99.90;;;;;;5048035;28;20037;-86
2021/10/18 03:21:38;;;;;;;8.85;6.57;;;9.10;99.90;;;;;;5047640;28;20268;-87
2021/10/18 03:24:04;;;;;;;11.65;7.13;;;9.10;99.90;;;;;;5047723;28;20034;-85
2021/10/18 03:26:30;;;;;;;10.60;8.18;;;9.10;99.90;;;;;;5047723;28;20096;-82
2021/10/18 03:28:56;;;;;;;11.32;7.53;;;9.10;99.90;;;;;;5047399;28;20045;-84
2021/10/18 03:31:21;;;;;;;9.98;7.03;;;9.00;99.90;;;;;;5047143;28;20033;-80
2021/10/18 03:33:48;;;;;;;11.30;7.90;;;9.00;99.90;;;;;;5047413;28;20041;-79
2021/10/18 03:36:14;;;;;;;12.35;7.30;;;9.00;99.90;;;;;;5047234;28;20021;-79
2021/10/18 03:38:40;;;;;;;12.60;8.05;;;8.90;99.90;;;;;;5047455;28;20434;-80
2021/10/18 03:41:05;;;;;;;11.40;7.72;;;8.90;99.90;;;;;;5030513;28;20037;-82
2021/10/18 03:43:31;;;;;;;13.48;7.57;;;8.90;99.90;;;;;;5047383;28;20025;-80
2021/10/18 03:45:59;;;;;;;11.18;8.20;;;8.90;99.90;;;;;;5047549;28;20025;-79
2021/10/18 03:48:25;;;;;;;12.27;7.85;;;8.90;99.90;;;;;;5032305;28;20104;-82
2021/10/18 03:50:50;;;;;;;10.10;7.28;;;8.80;99.90;;;;;;5053083;28;20547;-82
2021/10/18 03:53:16;;;;;;;12.55;7.95;;;8.80;99.90;;;;;;5056095;28;20604;-82
2021/10/18 03:55:42;;;;;;;9.77;7.47;;;8.80;99.90;;;;;;5040412;28;20010;-85
2021/10/18 03:58:07;;;;;;;10.10;7.43;;;8.80;99.90;;;;;;5057317;28;20033;-85
2021/10/18 04:00:33;;;;;;;10.73;7.60;;;8.70;99.90;;;;;;5041619;28;20040;-86
2021/10/18 04:02:59;;;;;;;12.75;7.15;;;8.70;99.90;;;;;;5041323;28;20017;-85
2021/10/18 04:05:24;;;;;;;11.23;7.30;;;8.70;99.90;;;;;;5057915;28;20044;-86
2021/10/18 04:07:50;;;;;;;12.40;7.45;;;8.70;99.90;;;;;;5041276;28;20037;-85
2021/10/18 04:10:20;;;;;;;12.00;7.78;;;8.70;99.90;;;;;;5057965;28;20017;-86
2021/10/18 04:12:46;;;;;;;11.98;7.43;;;8.70;99.90;;;;;;5041974;28;20028;-86
2021/10/18 04:15:13;;;;;;;10.70;7.70;;;8.70;99.90;;;;;;5041573;28;20025;-86
2021/10/18 04:17:38;;;;;;;10.40;7.65;;;8.70;99.90;;;;;;5041310;28;20022;-87
2021/10/18 04:20:05;;;;;;;14.02;8.02;;;8.60;99.90;;;;;;5041441;28;20024;-87
2021/10/18 04:22:32;;;;;;;11.43;7.72;;;8.60;99.90;;;;;;5041128;28;20013;-86
2021/10/18 04:24:58;;;;;;;13.02;8.15;;;8.50;99.90;;;;;;5057710;28;20053;-86
2021/10/18 04:27:24;;;;;;;10.23;7.57;;;8.40;99.90;;;;;;5056264;28;20029;-86
2021/10/18 04:29:50;;;;;;;10.65;7.20;;;8.40;99.90;;;;;;5038801;28;20034;-86
2021/10/18 04:32:16;;;;;;;9.98;7.15;;;8.40;99.90;;;;;;5054163;28;20063;-85
2021/10/18 04:34:42;;;;;;;13.95;8.52;;;8.30;99.90;;;;;;5037794;28;20051;-86
2021/10/18 04:37:08;;;;;;;12.50;7.97;;;8.30;99.90;;;;;;5037950;28;20048;-87
2021/10/18 04:39:34;;;;;;;10.27;7.40;;;8.30;99.90;;;;;;5054373;28;20017;-84
2021/10/18 04:42:00;;;;;;;12.10;7.72;;;8.30;99.90;;;;;;5057453;28;20006;-86
2021/10/18 04:44:25;;;;;;;11.68;8.18;;;8.20;99.90;;;;;;5041421;28;20029;-85
2021/10/18 04:46:54;;;;;;;11.52;7.93;;;8.20;99.90;;;;;;5073695;23;20064;-86
2021/10/18 04:49:20;;;;;;;11.43;7.55;;;8.20;99.90;;;;;;5049661;28;20043;-85
2021/10/18 04:51:45;;;;;;;11.65;8.32;;;8.20;99.90;;;;;;5048839;28;20056;-85
2021/10/18 04:54:11;;;;;;;12.40;7.43;;;8.10;99.90;;;;;;5066024;28;20033;-85
2021/10/18 04:56:37;;;;;;;10.48;8.00;;;8.10;99.90;;;;;;5049389;28;20044;-85
2021/10/18 04:59:03;;;;;;;12.02;8.25;;;8.10;99.90;;;;;;5049389;28;20099;-86
2021/10/18 05:01:30;;;;;;;11.60;7.60;;;8.10;99.90;;;;;;5049425;28;20036;-86
2021/10/18 05:03:56;;;;;;;11.48;8.15;;;8.10;99.90;;;;;;5049412;28;20033;-86
2021/10/18 05:06:21;;;;;;;10.32;7.53;;;8.00;99.90;;;;;;5049568;28;20055;-86
2021/10/18 05:08:47;;;;;;;12.00;8.25;;;8.10;99.90;;;;;;5049244;28;20062;-85
2021/10/18 05:11:12;;;;;;;12.48;8.80;;;8.00;99.90;;;;;;5049254;28;20060;-86
2021/10/18 05:13:38;;;;;;;12.07;8.00;;;7.90;99.90;;;;;;5049448;28;20037;-87
2021/10/18 05:16:04;;;;;;;10.63;7.70;;;7.90;99.90;;;;;;5054579;22;20046;-86
2021/10/18 05:18:29;;;;;;;12.70;8.45;;;7.90;99.90;;;;;;5042384;28;20046;-87
2021/10/18 05:21:05;;;;;;;11.20;8.38;;;7.90;99.90;;;;;;5025968;28;20030;-87
2021/10/18 05:23:38;;;;;;;11.00;7.85;;;7.90;99.90;;;;;;5080360;22;20057;-87
2021/10/18 05:26:04;;;;;;;13.63;7.90;;;7.80;99.90;;;;;;5049119;28;20084;-88
2021/10/18 05:28:30;;;;;;;10.88;8.15;;;7.80;99.90;;;;;;5048851;28;20033;-88
2021/10/18 05:30:55;;;;;;;13.02;9.20;;;7.80;99.90;;;;;;5048632;28;20058;-87
2021/10/18 05:33:21;;;;;;;10.15;7.60;;;7.80;99.90;;;;;;5048804;28;20032;-88
2021/10/18 05:35:47;;;;;;;11.23;7.40;;;7.80;99.90;;;;;;5048503;28;20128;-86
2021/10/18 05:38:23;;;;;;;11.30;8.25;;;7.80;99.90;;;;;;5048435;28;20041;-87
2021/10/18 05:40:50;;;;;;;12.45;8.55;;;7.80;99.90;;;;;;5048365;28;20024;-87
2021/10/18 05:43:16;;;;;;;12.13;8.80;;;7.70;99.90;;;;;;5065291;28;20060;-87
2021/10/18 05:45:42;;;;;;;14.05;9.52;;;7.80;99.90;;;;;;5048555;28;20487;-88
2021/10/18 05:48:07;;;;;;;13.75;8.90;;;7.80;99.90;;;;;;5065369;28;20028;-87
2021/10/18 05:50:37;;;;;;;13.40;8.82;;;7.70;99.90;;;;;;5065363;28;20029;-87
2021/10/18 05:53:03;;;;;;;13.60;9.60;;;7.70;99.90;;;;;;5065161;28;20029;-85
2021/10/18 05:55:29;;;;;;;14.02;9.38;;;7.70;99.90;;;;;;5044962;28;20041;-85
2021/10/18 05:58:03;;;;;;;13.05;9.68;;;7.80;99.90;;;;;;5061641;28;20041;-88
2021/10/18 06:00:32;;;;;;;12.85;9.15;;;7.80;99.90;;;;;;5044898;28;20033;-88
2021/10/18 06:02:58;;;;;;;11.80;8.27;;;7.80;99.90;;;;;;5061848;28;20038;-88
2021/10/18 06:05:24;;;;;;;13.88;10.10;;;7.80;99.90;;;;;;5061462;28;20030;-87
2021/10/18 06:07:50;;;;;;;17.35;9.43;;;7.80;99.90;;;;;;5061257;28;20123;-88
2021/10/18 06:10:16;;;;;;;9.90;8.43;;;7.80;99.90;;;;;;5060955;28;20040;-87
2021/10/18 06:12:43;;;;;;;12.15;8.13;;;7.80;99.90;;;;;;5044246;28;20100;-87
2021/10/18 06:15:10;;;;;;;13.15;8.40;;;7.80;99.90;;;;;;5061148;28;20055;-88
2021/10/18 06:17:36;;;;;;;11.65;8.45;;;7.80;99.90;;;;;;5060944;28;20037;-88
2021/10/18 06:20:04;;;;;;;13.55;8.35;;;7.80;99.90;;;;;;5060760;28;20063;-87
2021/10/18 06:22:30;;;;;;;12.38;8.18;;;7.80;99.90;;;;;;5060603;28;20055;-86
2021/10/18 06:24:56;;;;;;;12.30;7.93;;;7.80;99.90;;;;;;5060839;28;20037;-88
2021/10/18 06:27:23;;;;;;;10.05;6.85;;;7.90;99.90;;;;;;5060600;28;20033;-87
2021/10/18 06:29:50;;;;;;;12.43;7.43;;;7.90;99.90;;;;;;5060731;28;20044;-85
2021/10/18 06:32:15;;;;;;;12.30;7.60;;;8.00;99.90;;;;;;5061213;28;20109;-87
2021/10/18 06:34:41;;;;;;;16.75;8.40;;;8.00;99.90;;;;;;5061003;28;20033;-86
2021/10/18 06:37:07;;;;;;;10.45;7.53;;;8.00;99.90;;;;;;5060748;28;20047;-87
2021/10/18 06:39:32;;;;;;;10.27;7.22;;;8.10;99.90;;;;;;5044254;28;20140;-87
2021/10/18 06:41:58;;;;;;;14.13;8.32;;;8.10;99.90;;;;;;5060845;28;20036;-87
2021/10/18 06:44:24;;;;;;;11.88;7.75;;;8.10;99.90;;;;;;5062250;28;20036;-88
2021/10/18 06:46:49;;;;;;;12.35;7.55;;;8.10;99.90;;;;;;5060286;28;20037;-87
2021/10/18 06:49:15;;;;;;;12.98;8.13;;;8.10;99.90;;;;;;5060772;28;20033;-87
2021/10/18 06:51:51;;;;;;;14.90;7.38;;;8.20;99.90;;;;;;5060585;28;20037;-87
2021/10/18 06:54:17;;;;;;;10.73;7.82;;;8.20;99.90;;;;;;5062369;28;20052;-87
2021/10/18 06:56:46;;;;;;;12.65;7.65;;;8.30;99.90;;;;;;5042905;28;20042;-87
2021/10/18 06:59:13;;;;;;;9.88;7.47;;;8.30;99.90;;;;;;5060468;28;20033;-87
2021/10/18 07:01:39;;;;;;;11.40;7.68;;;8.30;99.90;;;;;;5043793;28;20033;-87
2021/10/18 07:04:06;;;;;;;14.45;8.50;;;8.40;99.90;;;;;;5043765;28;20310;-86
2021/10/18 07:06:32;;;;;;;14.00;8.25;;;8.40;99.90;;;;;;5060422;28;20032;-87
2021/10/18 07:08:57;;;;;;;15.13;8.48;;;8.40;99.90;;;;;;5060277;28;20057;-87
2021/10/18 07:11:23;;;;;;;13.45;8.00;;;8.40;99.90;;;;;;5060147;28;20481;-87
2021/10/18 07:13:49;;;;;;;11.98;7.72;;;8.40;99.90;;;;;;5060376;28;20109;-87
2021/10/18 07:16:14;;;;;;;12.05;8.05;;;8.40;99.90;;;;;;5062463;28;20038;-86
2021/10/18 07:18:40;;;;;;;10.20;7.03;;;8.40;99.90;;;;;;5063922;28;20548;-86
2021/10/18 07:21:06;;;;;;;13.10;8.10;;;8.50;99.90;;;;;;5047217;28;20022;-87
2021/10/18 07:23:31;;;;;;;11.52;7.75;;;8.40;99.90;;;;;;5063768;28;20119;-87
2021/10/18 07:25:57;;;;;;;11.82;7.78;;;8.50;99.90;;;;;;5063656;28;20477;-87
2021/10/18 07:28:24;;;;;;;12.32;7.47;;;8.50;99.90;;;;;;5063550;28;20049;-86
2021/10/18 07:30:50;;;;;;;10.15;6.75;;;8.50;99.90;;;;;;5063703;28;20037;-87
2021/10/18 07:33:18;;;;;;;10.48;7.32;;;8.50;99.90;;;;;;5063585;28;20029;-88
2021/10/18 07:35:44;;;;;;;9.55;6.45;;;8.60;99.90;;;;;;5063704;28;20458;-87
2021/10/18 07:38:11;;;;;;;10.38;6.93;;;8.60;99.90;;;;;;5063642;28;20041;-86
2021/10/18 07:40:37;;;;;;;11.73;7.20;;;8.70;99.90;;;;;;5063241;28;20034;-87
2021/10/18 07:43:03;;;;;;;9.18;6.50;;;8.70;99.90;;;;;;5063382;28;20105;-87
2021/10/18 07:45:29;;;;;;;10.07;7.07;;;8.80;99.90;;;;;;5063398;28;20075;-87
2021/10/18 07:47:55;;;;;;;13.02;6.85;;;8.80;99.90;;;;;;5063406;28;20034;-86
2021/10/18 07:50:21;;;;;;;10.25;6.72;;;8.90;99.90;;;;;;5063833;28;20056;-86
2021/10/18 07:52:46;;;;;;;12.15;7.25;;;8.90;99.90;;;;;;5063710;28;20029;-87
2021/10/18 07:55:16;;;;;;;8.80;6.00;;;8.90;99.90;;;;;;5057648;28;20107;-87
2021/10/18 07:57:44;;;;;;;10.50;6.85;;;9.00;99.90;;;;;;5063244;28;20057;-87
2021/10/18 08:00:11;;;;;;;10.43;6.90;;;9.10;99.90;;;;;;5063271;28;20077;-88
2021/10/18 08:02:38;;;;;;;11.55;5.90;;;9.10;99.90;;;;;;5063371;28;20060;-87
2021/10/18 08:05:04;;;;;;;9.32;5.97;;;9.20;99.90;;;;;;5063186;28;20104;-87
2021/10/18 08:07:35;;;;;;;9.98;6.80;;;9.30;99.90;;;;;;5063125;28;20037;-87
2021/10/18 08:10:06;;;;;;;10.88;7.50;;;9.40;99.90;;;;;;5063200;28;20093;-86
2021/10/18 08:12:32;;;;;;;10.52;6.03;;;9.50;99.90;;;;;;5063175;28;20075;-86
2021/10/18 08:14:58;;;;;;;11.90;6.72;;;9.50;99.90;;;;;;5063392;28;20060;-86
2021/10/18 08:17:25;;;;;;;8.95;6.38;;;9.60;99.90;;;;;;5046462;28;20033;-87
2021/10/18 08:19:50;;;;;;;8.40;6.43;;;9.70;99.90;;;;;;5046662;28;20044;-87
2021/10/18 08:22:17;;;;;;;13.85;6.68;;;9.80;99.90;;;;;;5062796;28;20041;-88
2021/10/18 08:24:43;;;;;;;10.23;6.55;;;9.90;99.90;;;;;;5062835;28;20038;-87
2021/10/18 08:27:08;;;;;;;12.05;6.82;;;10.00;99.90;;;;;;5061652;28;20025;-86
2021/10/18 08:29:34;;;;;;;11.38;7.40;;;10.10;99.90;;;;;;5062583;28;20103;-87
2021/10/18 08:32:00;;;;;;;9.95;6.65;;;10.20;99.90;;;;;;5062255;28;20036;-88
2021/10/18 08:34:25;;;;;;;12.50;7.97;;;10.30;99.90;;;;;;5062414;28;20124;-88
2021/10/18 08:36:51;;;;;;;9.88;6.82;;;10.20;99.90;;;;;;5062254;28;20061;-88
2021/10/18 08:41:51;;;;;;;10.98;7.30;;;10.40;99.90;;;;;;5062538;28;20095;-88
2021/10/18 08:44:17;;;;;;;9.93;6.47;;;10.40;99.90;;;;;;5062530;28;20488;-88
2021/10/18 08:46:52;;;;;;;8.55;5.95;;;10.40;99.90;;;;;;5062436;28;20120;-87
2021/10/18 08:49:19;;;;;;;7.88;5.63;;;10.60;99.90;;;;;;5062543;28;20048;-87
2021/10/18 08:51:46;;;;;;;8.75;5.78;;;10.70;99.90;;;;;;5062717;28;20021;-88
2021/10/18 08:54:12;;;;;;;8.20;5.97;;;10.80;99.90;;;;;;5064467;28;20060;-88
2021/10/18 08:56:38;;;;;;;7.30;5.30;;;10.80;99.90;;;;;;5045266;28;20040;-87
2021/10/18 08:59:04;;;;;;;8.68;5.85;;;10.80;99.90;;;;;;5045042;28;20101;-87
2021/10/18 09:01:43;;;;;;;6.47;4.90;;;10.90;99.90;;;;;;5062355;28;20026;-87
2021/10/18 09:04:15;;;;;;;7.20;5.28;;;11.20;99.90;;;;;;5061784;28;20041;-87
2021/10/18 09:06:47;;;;;;;13.10;6.13;;;11.30;99.90;;;;;;5061993;28;20037;-88
2021/10/18 09:09:14;;;;;;;8.30;5.72;;;11.40;99.90;;;;;;5045231;28;20107;-88
2021/10/18 09:11:40;;;;;;;11.88;6.20;;;11.40;99.90;;;;;;5045315;28;20040;-86
2021/10/18 09:14:06;;;;;;;8.10;5.70;;;11.40;99.90;;;;;;5045514;28;20105;-88
2021/10/18 09:16:42;;;;;;;7.88;5.47;;;11.30;99.90;;;;;;5045142;28;20068;-88
2021/10/18 09:19:14;;;;;;;9.07;6.45;;;11.50;99.90;;;;;;5061370;28;20037;-87
2021/10/18 09:21:48;;;;;;;10.50;6.53;;;11.60;99.90;;;;;;5061447;28;20040;-86
2021/10/18 09:24:34;;;;;;;11.07;6.57;;;11.60;99.90;;;;;;5046239;28;20144;-87
2021/10/18 09:27:17;;;;;;;8.13;5.40;;;11.80;99.90;;;;;;5044918;28;20041;-87
2021/10/18 09:29:47;;;;;;;7.78;5.75;;;11.90;99.90;;;;;;5044782;28;20110;-86
2021/10/18 09:32:30;;;;;;;9.20;5.90;;;12.10;99.90;;;;;;5044907;28;20334;-87
2021/10/18 09:35:07;;;;;;;7.70;5.18;;;12.10;99.90;;;;;;5061267;28;20120;-87
2021/10/18 09:37:39;;;;;;;8.40;5.82;;;12.20;99.90;;;;;;5044387;28;20041;-86
2021/10/18 09:40:05;;;;;;;9.45;5.00;;;12.30;99.90;;;;;;5060819;28;20033;-87
2021/10/18 09:42:31;;;;;;;6.90;4.82;;;12.40;99.90;;;;;;5044790;28;20030;-86
2021/10/18 10:52:45;;;;;;;12.85;6.75;;;13.70;99.90;;;;;;5088126;28;20058;-87
2021/10/18 10:55:24;;;;;;;12.10;7.78;;;13.70;99.90;;;;;;5077034;28;20036;-87
2021/10/18 11:00:41;;;;;;;9.15;6.20;;;13.70;99.90;;;;;;5071494;28;20044;-87
2021/10/18 11:03:36;;;;;;;10.43;6.40;;;13.90;99.90;;;;;;5074646;28;20055;-87
2021/10/18 11:06:04;;;;;;;8.90;6.88;;;14.00;99.90;;;;;;5074049;28;20039;-87
2021/10/18 11:08:38;;;;;;;14.75;8.23;;;14.00;99.90;;;;;;5074398;28;20049;-87
2021/10/18 11:11:23;;;;;;;13.88;7.65;;;13.80;99.90;;;;;;5074352;28;20042;-88
2021/10/18 11:13:54;;;;;;;9.88;7.13;;;13.90;99.90;;;;;;5074146;28;20060;-86
2021/10/18 11:16:30;;;;;;;8.27;6.07;;;13.90;99.90;;;;;;5073841;28;20101;-89
2021/10/18 11:18:58;;;;;;;8.25;5.38;;;14.00;99.90;;;;;;5073916;28;20043;-87
2021/10/18 11:21:26;;;;;;;9.23;6.30;;;14.10;99.90;;;;;;5073670;28;20031;-86
2021/10/18 11:24:12;;;;;;;9.63;6.55;;;14.30;99.90;;;;;;5073871;28;20036;-87
2021/10/18 11:26:42;;;;;;;7.18;5.38;;;14.40;99.90;;;;;;5089976;28;20035;-86
2021/10/18 11:29:10;;;;;;;7.45;5.38;;;14.50;99.90;;;;;;5073652;28;20119;-89
2021/10/18 11:31:44;;;;;;;7.80;6.38;;;14.60;99.90;;;;;;5073248;28;20063;-86
2021/10/18 11:34:18;;;;;;;9.30;6.78;;;14.60;99.90;;;;;;5073700;28;20024;-87
2021/10/18 11:36:46;;;;;;;9.80;7.18;;;14.50;99.90;;;;;;5073539;28;20043;-88
2021/10/18 11:39:23;;;;;;;9.15;5.78;;;14.60;99.90;;;;;;5073410;28;20052;-89
2021/10/18 11:42:07;;;;;;;10.70;6.18;;;14.60;99.90;;;;;;5073771;28;20028;-88
2021/10/18 11:44:59;;;;;;;10.00;6.53;;;14.70;99.90;;;;;;5073428;28;20043;-88
2021/10/18 11:47:31;;;;;;;6.22;3.83;;;14.80;99.90;;;;;;5025665;28;20080;-89
2021/10/18 11:50:14;;;;;;;8.02;5.38;;;14.90;99.90;;;;;;4992908;28;20030;-87
2021/10/18 11:52:51;;;;;;;7.05;4.93;;;15.00;99.90;;;;;;4993317;28;20548;-87
2021/10/18 11:55:28;;;;;;;8.15;5.07;;;15.20;99.90;;;;;;5008665;28;20049;-87
2021/10/18 11:57:57;;;;;;;4.82;3.65;;;15.10;99.90;;;;;;4989674;28;20104;-88
2021/10/18 12:00:28;;;;;;;10.00;5.68;;;15.10;99.90;;;;;;4985015;28;20067;-87
2021/10/18 12:02:59;;;;;;;8.07;5.22;;;14.90;99.90;;;;;;5008883;28;20030;-88
2021/10/18 12:05:32;;;;;;;6.57;4.50;;;15.00;99.90;;;;;;4992839;28;20537;-87
2021/10/18 12:07:58;;;;;;;7.63;4.45;;;15.20;99.90;;;;;;4992835;28;20065;-86
2021/10/18 12:10:29;;;;;;;9.75;5.00;;;15.20;99.90;;;;;;4992604;28;20219;-88
2021/10/18 12:13:13;;;;;;;8.35;5.07;;;15.10;99.90;;;;;;4992841;28;20033;-87
2021/10/18 12:16:08;;;;;;;6.70;4.10;;;15.20;99.90;;;;;;5025060;28;20120;-88
2021/10/18 12:18:42;;;;;;;7.97;5.20;;;15.20;99.90;;;;;;4992565;28;20049;-89
2021/10/18 12:21:32;;;;;;;8.18;5.53;;;15.20;99.90;;;;;;4992637;28;20046;-88
2021/10/18 12:24:02;;;;;;;;;;;15.10;99.90;;;;;;5034374;28;20041;-88
2021/10/18 12:26:52;;;;;;;9.07;5.25;;;15.10;99.90;;;;;;5052582;28;19969;-87
2021/10/18 12:29:21;;;;;;;8.55;5.28;;;15.10;99.90;;;;;;5069490;28;20036;-87
2021/10/18 12:31:54;;;;;;;6.18;4.22;;;15.00;99.90;;;;;;5069135;28;20123;-87
2021/10/18 12:34:22;;;;;;;7.43;5.13;;;15.10;99.90;;;;;;5069030;28;20040;-88
2021/10/18 12:37:10;;;;;;;5.75;4.90;;;15.20;99.90;;;;;;5052342;28;20070;-88
2021/10/18 12:39:39;;;;;;;9.15;4.95;;;15.00;99.90;;;;;;5068886;28;20051;-88
2021/10/18 12:42:06;;;;;;;7.18;5.13;;;14.80;99.90;;;;;;5051921;28;20060;-88
2021/10/18 12:44:35;;;;;;;6.50;4.13;;;14.90;99.90;;;;;;5052464;28;20032;-88
2021/10/18 12:47:01;;;;;;;8.13;5.35;;;15.00;99.90;;;;;;5068830;28;20480;-87
2021/10/18 12:49:34;;;;;;;5.50;3.72;;;14.90;99.90;;;;;;5052475;28;20059;-88
2021/10/18 12:52:04;;;;;;;7.35;3.67;;;14.90;99.90;;;;;;5052193;28;20476;-86
2021/10/18 12:54:39;;;;;;;6.10;4.53;;;15.00;99.90;;;;;;5055621;28;20021;-89
2021/10/18 12:57:14;;;;;;;6.32;4.85;;;14.70;99.90;;;;;;5086809;28;20484;-89
2021/10/18 13:00:00;;;;;;;5.60;4.18;;;14.60;99.90;;;;;;5068423;28;20048;-88
2021/10/18 13:02:29;;;;;;;5.45;4.15;;;14.80;99.90;;;;;;5068458;28;20024;-88
2021/10/18 13:05:09;;;;;;;6.38;3.95;;;14.80;99.90;;;;;;5068588;28;20029;-87
2021/10/18 13:07:39;;;;;;;4.88;3.83;;;14.80;99.90;;;;;;5085199;28;20028;-88
2021/10/18 13:10:06;;;;;;;;;;;14.80;99.90;;;;;;5085344;28;20037;-87
2021/10/18 13:12:32;;;;;;;7.53;4.78;;;14.80;99.90;;;;;;5068239;28;19943;-88
2021/10/18 13:14:58;;;;;;;10.35;6.15;;;14.80;99.90;;;;;;5067693;28;20036;-88
2021/10/18 13:17:25;;;;;;;8.57;4.88;;;14.70;99.90;;;;;;5068363;28;20040;-88
2021/10/18 13:19:51;;;;;;;8.77;5.25;;;14.70;99.90;;;;;;5068042;28;20036;-88
2021/10/18 13:22:18;;;;;;;6.95;4.18;;;14.90;99.90;;;;;;5068158;28;20043;-89
2021/10/18 13:24:44;;;;;;;8.27;4.70;;;14.90;99.90;;;;;;5068377;28;20033;-88
2021/10/18 13:27:11;;;;;;;5.72;4.15;;;15.00;99.90;;;;;;5067672;28;20035;-88
2021/10/18 13:29:37;;;;;;;6.43;4.88;;;15.10;99.90;;;;;;5084674;28;20020;-87
2021/10/18 13:32:04;;;;;;;10.02;4.93;;;15.00;99.90;;;;;;5067932;28;20032;-88
2021/10/18 13:34:31;;;;;;;6.45;4.57;;;15.10;99.90;;;;;;5068067;28;20044;-88
2021/10/18 13:36:58;;;;;;;6.35;4.18;;;15.10;99.90;;;;;;5084544;28;20150;-88
2021/10/18 13:39:24;;;;;;;5.43;3.33;;;15.10;99.90;;;;;;5067875;28;20028;-88
2021/10/18 13:41:50;;;;;;;6.05;3.60;;;15.00;99.90;;;;;;5084708;28;20040;-89
2021/10/18 13:44:17;;;;;;;6.40;4.00;;;15.10;99.90;;;;;;5084420;28;20028;-88
2021/10/18 13:46:42;;;;;;;5.47;4.00;;;15.20;99.90;;;;;;5084568;28;20157;-87
2021/10/18 13:49:08;;;;;;;5.65;3.13;;;15.30;99.90;;;;;;5068229;28;20032;-87
2021/10/18 13:51:34;;;;;;;4.53;2.90;;;15.30;99.90;;;;;;5068022;28;20032;-88
2021/10/18 13:54:00;;;;;;;5.90;3.95;;;15.30;99.90;;;;;;5068917;28;20104;-87
2021/10/18 13:56:27;;;;;;;6.72;4.00;;;15.30;99.90;;;;;;5054507;28;20058;-88
2021/10/18 13:58:53;;;;;;;5.32;3.53;;;15.30;99.90;;;;;;5050792;28;20075;-87
2021/10/18 14:01:19;;;;;;;7.07;4.82;;;15.40;99.90;;;;;;5051026;28;20070;-88
2021/10/18 14:03:45;;;;;;;8.45;3.95;;;15.20;99.90;;;;;;5050986;28;20037;-88
2021/10/18 14:06:14;;;;;;;5.75;4.07;;;15.30;99.90;;;;;;5051210;28;20037;-88